createdAt,value
2022-09-12T00:01:22.203Z,99696.17
2022-09-12T00:03:51.061Z,99696.40
2022-09-12T00:06:23.153Z,99696.19
2022-09-12T00:08:50.525Z,99697.16
2022-09-12T00:11:17.047Z,99694.30
2022-09-12T00:13:43.606Z,99698.92
2022-09-12T00:16:17.298Z,99695.59
2022-09-12T00:18:45.573Z,99691.54
2022-09-12T00:21:12.687Z,99688.77
2022-09-12T00:23:39.451Z,99695.61
2022-09-12T00:26:06.110Z,99700.63
2022-09-12T00:28:34.390Z,99701.73
2022-09-12T00:31:03.300Z,99700.88
2022-09-12T00:33:30.402Z,99710.98
2022-09-12T00:35:56.891Z,99710.48
2022-09-12T00:38:23.561Z,99710.14
2022-09-12T00:40:50.000Z,99711.48
2022-09-12T00:43:37.239Z,99712.50
2022-09-12T00:46:22.328Z,99715.11
2022-09-12T00:48:51.461Z,99714.54
2022-09-12T00:51:18.561Z,99712.79
2022-09-12T00:53:45.684Z,99719.04
2022-09-12T00:56:13.327Z,99715.36
2022-09-12T00:58:43.147Z,99716.04
2022-09-12T01:01:09.690Z,99715.30
2022-09-12T01:03:36.266Z,99717.13
2022-09-12T01:06:02.801Z,99711.52
2022-09-12T01:09:19.419Z,99708.56
2022-09-12T01:19:52.084Z,99708.73
2022-09-12T01:22:36.815Z,99706.70
2022-09-12T01:29:30.940Z,99704.84
2022-09-12T01:32:00.488Z,99703.91
2022-09-12T01:34:27.565Z,99703.39
2022-09-12T01:36:57.206Z,99705.55
2022-09-12T01:39:51.985Z,99715.52
2022-09-12T01:42:26.350Z,99716.33
2022-09-12T01:45:15.922Z,99719.15
2022-09-12T01:47:47.678Z,99715.44
2022-09-12T01:50:27.415Z,99713.61
2022-09-12T01:53:07.506Z,99713.81
2022-09-12T01:55:58.319Z,99702.23
2022-09-12T01:58:27.845Z,99702.55
2022-09-12T02:05:30.819Z,99700.64
2022-09-12T02:08:22.692Z,99707.64
2022-09-12T02:10:59.099Z,99710.66
2022-09-12T02:13:39.147Z,99709.71
2022-09-12T02:16:31.135Z,99714.34
2022-09-12T02:19:22.840Z,99714.88
2022-09-12T02:21:53.271Z,99723.61
2022-09-12T02:32:36.331Z,99759.35
2022-09-12T02:35:10.884Z,99754.41
2022-09-12T02:37:49.526Z,99739.44
2022-09-12T02:44:07.629Z,99728.59
2022-09-12T02:46:40.463Z,99728.09
2022-09-12T02:53:31.889Z,99738.83
2022-09-12T02:56:14.574Z,99740.91
2022-09-12T02:58:45.830Z,99743.58
2022-09-12T03:01:15.533Z,99741.05
2022-09-12T03:04:00.535Z,99744.06
2022-09-12T03:06:54.116Z,99749.89
2022-09-12T03:09:52.504Z,99751.72
2022-09-12T03:12:28.242Z,99747.10
2022-09-12T03:15:21.149Z,99752.35
2022-09-12T03:17:55.874Z,99756.08
2022-09-12T03:20:36.246Z,99753.77
2022-09-12T03:27:23.592Z,99756.77
2022-09-12T03:29:59.599Z,99754.73
2022-09-12T03:32:42.283Z,99755.36
2022-09-12T03:35:22.859Z,99752.27
2022-09-12T03:42:23.155Z,99752.35
2022-09-12T03:47:36.684Z,99749.64
2022-09-12T03:50:16.470Z,99759.52
2022-09-12T03:52:43.415Z,99757.91
2022-09-12T03:55:13.678Z,99761.02
2022-09-12T03:57:40.355Z,99766.98
2022-09-12T04:00:31.365Z,99770.31
2022-09-12T04:02:58.026Z,99774.84
2022-09-12T04:05:25.239Z,99779.70
2022-09-12T04:12:23.307Z,99775.23
2022-09-12T04:14:55.765Z,99777.46
2022-09-12T04:17:22.335Z,99780.55
2022-09-12T04:28:18.774Z,99793.58
2022-09-12T04:30:47.591Z,99791.34
2022-09-12T04:33:15.075Z,99794.59
2022-09-12T04:35:42.504Z,99792.36
2022-09-12T04:38:09.445Z,99796.48
2022-09-12T04:40:36.487Z,99796.40
2022-09-12T04:43:03.331Z,99801.71
2022-09-12T04:45:30.110Z,99797.17
2022-09-12T04:48:02.859Z,99801.31
2022-09-12T04:50:34.332Z,99799.40
2022-09-12T04:53:01.107Z,99802.81
2022-09-12T04:55:33.259Z,99802.48
2022-09-12T04:58:28.449Z,99807.02
2022-09-12T05:01:08.683Z,99808.27
2022-09-12T05:03:38.499Z,99816.54
2022-09-12T05:06:08.064Z,99821.10
2022-09-12T05:08:35.233Z,99821.25
2022-09-12T05:11:06.563Z,99827.38
2022-09-12T05:13:35.735Z,99832.65
2022-09-12T05:16:28.201Z,99830.56
2022-09-12T05:18:57.377Z,99841.26
2022-09-12T05:21:33.728Z,99837.88
2022-09-12T05:24:09.368Z,99842.33
2022-09-12T05:26:36.864Z,99845.25
2022-09-12T05:29:08.250Z,99845.90
2022-09-12T05:35:18.202Z,99847.51
2022-09-12T05:41:33.620Z,99847.90
2022-09-12T05:44:03.885Z,99845.77
2022-09-12T05:46:36.155Z,99849.52
2022-09-12T05:49:29.634Z,99846.36
2022-09-12T05:51:56.875Z,99849.70
2022-09-12T05:54:27.264Z,99847.39
2022-09-12T06:01:31.085Z,99846.77
2022-09-12T06:04:01.783Z,99843.70
2022-09-12T06:11:04.164Z,99851.30
2022-09-12T06:17:18.288Z,99847.30
2022-09-12T06:19:55.056Z,99842.90
2022-09-12T06:22:22.128Z,99846.84
2022-09-12T06:24:48.673Z,99845.17
2022-09-12T06:27:15.564Z,99849.84
2022-09-12T06:30:08.051Z,99846.90
2022-09-12T06:32:37.624Z,99849.20
2022-09-12T06:35:10.284Z,99855.15
2022-09-12T06:42:40.139Z,99863.66
2022-09-12T06:45:25.767Z,99867.55
2022-09-12T06:48:36.441Z,99869.29
2022-09-12T06:51:08.687Z,99865.81
2022-09-12T06:53:53.168Z,99867.73
2022-09-12T06:56:42.721Z,99868.92
2022-09-12T06:59:25.163Z,99876.36
2022-09-12T07:02:03.367Z,99878.83
2022-09-12T07:04:56.999Z,99883.75
2022-09-12T07:07:44.021Z,99885.52
2022-09-12T07:10:15.510Z,99883.02
2022-09-12T07:12:48.558Z,99882.52
2022-09-12T07:15:35.640Z,99887.16
2022-09-12T07:18:32.099Z,99888.06
2022-09-12T07:21:10.824Z,99893.98
2022-09-12T07:23:43.533Z,99891.11
2022-09-12T07:29:37.201Z,99891.95
2022-09-12T07:32:11.558Z,99897.26
2022-09-12T07:34:45.211Z,99898.14
2022-09-12T07:37:15.259Z,99895.77
2022-09-12T07:39:44.700Z,99895.13
2022-09-12T07:42:14.815Z,99892.54
2022-09-12T07:44:41.412Z,99890.55
2022-09-12T07:47:11.848Z,99901.45
2022-09-12T07:49:39.716Z,99899.98
2022-09-12T07:52:06.700Z,99901.16
2022-09-12T07:55:07.057Z,99902.03
2022-09-12T07:57:58.682Z,99903.04
2022-09-12T08:08:18.793Z,99912.89
2022-09-12T08:10:49.408Z,99908.73
2022-09-12T08:13:21.124Z,99909.35
2022-09-12T08:15:49.346Z,99905.05
2022-09-12T08:18:21.983Z,99907.55
2022-09-12T08:20:49.678Z,99905.30
2022-09-12T08:23:21.531Z,99911.16
2022-09-12T08:25:57.517Z,99906.34
2022-09-12T08:28:24.722Z,99906.15
2022-09-12T08:30:53.322Z,99904.56
2022-09-12T08:33:20.424Z,99900.23
2022-09-12T08:35:47.141Z,99904.16
2022-09-12T08:38:13.625Z,99909.30
2022-09-12T08:41:04.968Z,99910.17
2022-09-12T08:43:57.187Z,99907.53
2022-09-12T08:46:30.938Z,99903.41
2022-09-12T08:48:59.756Z,99899.83
2022-09-12T08:51:34.729Z,99901.67
2022-09-12T08:54:16.644Z,99900.58
2022-09-12T08:57:13.528Z,99899.11
2022-09-12T08:59:44.312Z,99904.77
2022-09-12T09:02:23.334Z,99896.08
2022-09-12T09:04:52.029Z,99897.17
2022-09-12T09:07:40.713Z,99899.33
2022-09-12T09:10:13.453Z,99898.04
2022-09-12T09:13:01.855Z,99896.98
2022-09-12T09:15:31.531Z,99894.97
2022-09-12T09:18:05.840Z,99893.73
2022-09-12T09:20:32.893Z,99891.70
2022-09-12T09:23:12.680Z,99889.88
2022-09-12T09:25:49.581Z,99898.08
2022-09-12T09:28:19.605Z,99898.19
2022-09-12T09:30:46.634Z,99898.89
2022-09-12T09:33:20.698Z,99897.19
2022-09-12T09:35:51.687Z,99894.34
2022-09-12T09:38:18.278Z,99898.09
2022-09-12T09:48:24.179Z,99890.61
2022-09-12T09:51:01.173Z,99892.14
2022-09-12T09:53:42.832Z,99887.75
2022-09-12T09:56:33.677Z,99889.71
2022-09-12T09:59:11.380Z,99884.70
2022-09-12T10:02:10.457Z,99888.56
2022-09-12T10:04:41.559Z,99884.42
2022-09-12T10:07:18.229Z,99881.64
2022-09-12T10:13:37.593Z,99885.95
2022-09-12T10:16:19.948Z,99885.64
2022-09-12T10:18:46.594Z,99886.30
2022-09-12T10:21:31.756Z,99880.23
2022-09-12T10:24:02.698Z,99884.52
2022-09-12T10:26:37.675Z,99876.27
2022-09-12T10:29:13.668Z,99876.65
2022-09-12T10:31:55.036Z,99875.15
2022-09-12T10:34:48.210Z,99871.52
2022-09-12T10:37:25.832Z,99875.33
2022-09-12T10:40:22.065Z,99874.51
2022-09-12T10:43:01.235Z,99869.93
2022-09-12T10:45:35.772Z,99870.42
2022-09-12T10:48:35.026Z,99877.86
2022-09-12T10:51:13.829Z,99879.04
2022-09-12T11:04:43.740Z,99883.27
2022-09-12T11:07:42.554Z,99885.21
2022-09-12T11:14:43.174Z,99885.98
2022-09-12T11:22:05.660Z,99882.70
2022-09-12T11:29:35.398Z,99883.63
2022-09-12T11:32:13.525Z,99880.36
2022-09-12T11:34:49.284Z,99878.85
2022-09-12T11:37:31.357Z,99878.23
2022-09-12T11:40:07.960Z,99876.73
2022-09-12T11:42:41.461Z,99879.21
2022-09-12T11:45:36.687Z,99877.17
2022-09-12T11:52:37.586Z,99868.90
2022-09-12T11:59:30.574Z,99865.23
2022-09-12T12:01:59.319Z,99859.52
2022-09-12T12:04:33.078Z,99860.84
2022-09-12T12:07:09.165Z,99860.11
2022-09-12T12:09:50.151Z,99865.48
2022-09-12T12:16:54.461Z,99864.89
2022-09-12T12:24:11.113Z,99861.89
2022-09-12T12:29:48.229Z,99856.48
2022-09-12T12:32:28.818Z,99863.48
2022-09-12T12:35:14.882Z,99864.20
2022-09-12T12:37:49.598Z,99862.67
2022-09-12T12:40:24.843Z,99858.50
2022-09-12T12:42:55.989Z,99855.58
2022-09-12T12:46:06.576Z,99855.45
2022-09-12T12:48:36.827Z,99855.70
2022-09-12T12:51:23.528Z,99854.38
2022-09-12T12:53:51.848Z,99857.86
2022-09-12T12:56:29.616Z,99856.63
2022-09-12T12:59:03.871Z,99859.56
2022-09-12T13:01:40.350Z,99855.04
2022-09-12T13:04:21.225Z,99853.73
2022-09-12T13:07:01.058Z,99855.73
2022-09-12T13:09:43.296Z,99855.42
2022-09-12T13:12:35.546Z,99847.30
2022-09-12T13:19:32.030Z,99842.15
2022-09-12T13:26:24.769Z,99836.08
2022-09-12T13:33:28.734Z,99832.69
2022-09-12T13:36:19.470Z,99824.80
2022-09-12T13:39:23.633Z,99827.23
2022-09-12T13:41:57.008Z,99828.88
2022-09-12T13:44:26.023Z,99826.41
2022-09-12T13:46:54.522Z,99823.17
2022-09-12T13:49:36.263Z,99822.91
2022-09-12T13:52:03.315Z,99821.84
2022-09-12T13:54:30.467Z,99822.58
2022-09-12T13:56:57.333Z,99822.48
2022-09-12T13:59:24.191Z,99817.95
2022-09-12T14:01:52.234Z,99816.38
2022-09-12T14:04:38.344Z,99817.02
2022-09-12T14:07:19.678Z,99811.83
2022-09-12T14:09:52.537Z,99814.98
2022-09-12T14:12:24.781Z,99812.58
2022-09-12T14:14:52.461Z,99812.82
2022-09-12T14:17:25.497Z,99811.27
2022-09-12T14:19:52.368Z,99808.95
2022-09-12T14:22:19.154Z,99806.71
2022-09-12T14:24:51.163Z,99808.06
2022-09-12T14:27:28.516Z,99808.29
2022-09-12T14:30:03.307Z,99807.99
2022-09-12T14:32:30.233Z,99806.94
2022-09-12T14:35:03.790Z,99806.27
2022-09-12T14:37:39.465Z,99804.69
2022-09-12T14:40:18.353Z,99805.32
2022-09-12T14:42:46.261Z,99804.80
2022-09-12T14:45:33.213Z,99802.66
2022-09-12T14:48:00.450Z,99803.81
2022-09-12T14:50:40.736Z,99803.73
2022-09-12T14:53:18.482Z,99795.32
2022-09-12T14:55:49.304Z,99789.65
2022-09-12T14:58:26.475Z,99793.48
2022-09-12T15:01:01.947Z,99794.17
2022-09-12T15:03:51.235Z,99798.20
2022-09-12T15:06:36.270Z,99792.29
2022-09-12T15:09:06.891Z,99791.91
2022-09-12T15:11:34.137Z,99795.73
2022-09-12T15:14:27.331Z,99789.59
2022-09-12T15:16:54.291Z,99789.30
2022-09-12T15:19:21.016Z,99788.20
2022-09-12T15:21:47.824Z,99784.63
2022-09-12T15:24:15.078Z,99777.36
2022-09-12T15:26:44.294Z,99775.70
2022-09-12T15:29:11.545Z,99779.02
2022-09-12T15:31:39.530Z,99777.06
2022-09-12T15:34:08.477Z,99781.17
2022-09-12T15:36:35.468Z,99779.27
2022-09-12T15:39:11.805Z,99775.83
2022-09-12T15:41:41.926Z,99776.59
2022-09-12T15:44:12.511Z,99779.88
2022-09-12T15:46:42.410Z,99785.34
2022-09-12T15:49:09.601Z,99777.83
2022-09-12T15:51:38.603Z,99780.48
2022-09-12T15:54:06.220Z,99777.40
2022-09-12T15:56:36.506Z,99782.70
2022-09-12T15:59:04.448Z,99779.31
2022-09-12T16:01:31.389Z,99780.41
2022-09-12T16:03:58.596Z,99776.77
2022-09-12T16:06:32.433Z,99780.66
2022-09-12T16:09:02.074Z,99779.57
2022-09-12T16:11:30.064Z,99779.88
2022-09-12T16:13:58.064Z,99780.55
2022-09-12T16:16:25.427Z,99783.11
2022-09-12T16:18:52.496Z,99781.58
2022-09-12T16:21:20.194Z,99779.45
2022-09-12T16:23:48.040Z,99776.31
2022-09-12T16:26:15.567Z,99778.80
2022-09-12T16:28:43.193Z,99775.69
2022-09-12T16:31:15.220Z,99779.27
2022-09-12T16:33:45.433Z,99782.35
2022-09-12T16:36:29.187Z,99785.41
2022-09-12T16:39:37.386Z,99779.06
2022-09-12T16:42:14.416Z,99781.60
2022-09-12T16:44:55.436Z,99778.73
2022-09-12T16:47:42.906Z,99779.41
2022-09-12T16:50:28.481Z,99777.91
2022-09-12T16:53:09.463Z,99779.63
2022-09-12T16:56:53.258Z,99779.81
2022-09-12T17:06:36.263Z,99782.81
2022-09-12T17:07:53.723Z,99782.07
2022-09-12T17:28:35.475Z,99793.91
2022-09-12T17:32:02.735Z,99793.98
2022-09-12T17:38:53.874Z,99800.64
2022-09-12T17:41:45.740Z,99806.85
2022-09-12T18:03:12.977Z,99838.41
2022-09-12T18:06:03.269Z,99838.80
2022-09-12T18:08:54.054Z,99840.82
2022-09-12T18:11:21.830Z,99848.37
2022-09-12T18:13:55.318Z,99850.46
2022-09-12T18:16:23.411Z,99852.58
2022-09-12T18:18:53.310Z,99857.61
2022-09-12T18:21:23.395Z,99861.51
2022-09-12T18:23:54.419Z,99861.51
2022-09-12T18:26:57.080Z,99874.29
2022-09-12T18:30:04.299Z,99885.23
2022-09-12T18:32:40.901Z,99888.20
2022-09-12T18:39:17.373Z,99875.75
2022-09-12T18:45:07.464Z,99877.40
2022-09-12T18:47:41.462Z,99885.11
2022-09-12T18:50:33.199Z,99884.45
2022-09-12T18:53:09.118Z,99886.91
2022-09-12T18:55:35.884Z,99888.03
2022-09-12T18:58:21.966Z,99894.71
2022-09-12T19:01:19.728Z,99893.20
2022-09-12T19:06:51.010Z,99892.66
2022-09-12T19:12:44.803Z,99898.65
2022-09-12T19:15:32.779Z,99900.38
2022-09-12T19:18:02.721Z,99901.23
2022-09-12T19:23:48.316Z,99906.39
2022-09-12T19:26:37.306Z,99915.00
2022-09-12T19:29:35.254Z,99917.90
2022-09-12T19:32:12.248Z,99913.18
2022-09-12T19:34:51.773Z,99918.36
2022-09-12T19:37:38.833Z,99919.18
2022-09-12T19:40:09.878Z,99919.44
2022-09-12T19:42:46.316Z,99918.80
2022-09-12T19:45:18.541Z,99917.79
2022-09-12T19:47:48.006Z,99918.45
2022-09-12T19:50:19.939Z,99918.17
2022-09-12T19:52:54.249Z,99921.64
2022-09-12T19:55:28.463Z,99924.23
2022-09-12T19:58:10.255Z,99922.76
2022-09-12T20:00:37.419Z,99927.56
2022-09-12T20:03:09.791Z,99921.96
2022-09-12T20:05:40.751Z,99923.66
2022-09-12T20:08:09.502Z,99925.86
2022-09-12T20:10:41.728Z,99924.49
2022-09-12T20:13:11.436Z,99926.03
2022-09-12T20:15:48.410Z,99928.80
2022-09-12T20:18:16.475Z,99926.53
2022-09-12T20:20:43.382Z,99931.32
2022-09-12T20:23:10.035Z,99928.64
2022-09-12T20:25:43.037Z,99929.05
2022-09-12T20:28:33.086Z,99930.02
2022-09-12T20:31:16.781Z,99928.91
2022-09-12T20:33:43.697Z,99926.55
2022-09-12T20:36:12.430Z,99924.89
2022-09-12T20:38:40.098Z,99922.58
2022-09-12T20:41:21.928Z,99925.52
2022-09-12T20:43:57.049Z,99929.30
2022-09-12T20:46:32.469Z,99929.23
2022-09-12T20:49:00.848Z,99928.45
2022-09-12T20:51:34.681Z,99929.09
2022-09-12T20:54:05.985Z,99925.38
2022-09-12T20:56:33.433Z,99926.20
2022-09-12T20:59:11.907Z,99931.88
2022-09-12T21:01:38.616Z,99926.40
2022-09-12T21:04:05.086Z,99929.13
2022-09-12T21:06:34.816Z,99931.05
2022-09-12T21:09:01.386Z,99932.90
2022-09-12T21:11:28.395Z,99935.29
2022-09-12T21:13:57.270Z,99933.55
2022-09-12T21:16:25.596Z,99939.73
2022-09-12T21:18:54.353Z,99935.44
2022-09-12T21:21:31.074Z,99935.36
2022-09-12T21:24:04.250Z,99935.45
2022-09-12T21:26:40.289Z,99936.42
2022-09-12T21:29:09.050Z,99936.51
2022-09-12T21:31:36.064Z,99937.23
2022-09-12T21:34:02.893Z,99934.13
2022-09-12T21:36:34.728Z,99936.59
2022-09-12T21:39:06.842Z,99934.13
2022-09-12T21:41:44.448Z,99936.44
2022-09-12T21:44:18.889Z,99933.81
2022-09-12T21:46:59.427Z,99934.44
2022-09-12T21:49:39.653Z,99928.08
2022-09-12T21:52:06.417Z,99929.20
2022-09-12T21:54:35.457Z,99928.89
2022-09-12T22:02:59.121Z,99916.35
2022-09-12T22:08:29.127Z,99916.13
2022-09-12T22:11:22.357Z,99918.92
2022-09-12T22:14:21.063Z,99915.36
2022-09-12T22:17:21.439Z,99922.69
2022-09-12T22:19:51.187Z,99921.16
2022-09-12T22:22:36.574Z,99922.61
2022-09-12T22:25:19.652Z,99920.63
2022-09-12T22:28:23.073Z,99925.56
2022-09-12T22:30:52.666Z,99924.54
2022-09-12T22:33:20.543Z,99919.59
2022-09-12T22:35:58.653Z,99920.30
2022-09-12T22:38:56.610Z,99921.19
2022-09-12T22:41:23.274Z,99918.25
2022-09-12T22:43:52.610Z,99916.17
2022-09-12T22:46:22.889Z,99919.02
2022-09-12T22:48:57.217Z,99919.34
2022-09-12T22:51:26.243Z,99924.04
2022-09-12T22:53:53.170Z,99927.59
2022-09-12T22:56:19.921Z,99926.79
2022-09-12T22:58:46.688Z,99922.59
2022-09-12T23:01:13.767Z,99923.23
2022-09-12T23:03:40.693Z,99924.73
2022-09-12T23:06:07.962Z,99920.68
2022-09-12T23:08:35.183Z,99924.42
2022-09-12T23:11:12.376Z,99922.67
2022-09-12T23:13:40.807Z,99916.21
2022-09-12T23:16:14.107Z,99913.05
2022-09-12T23:18:48.449Z,99907.00
2022-09-12T23:21:16.244Z,99904.86
2022-09-12T23:23:42.897Z,99903.51
2022-09-12T23:26:14.423Z,99904.60
2022-09-12T23:28:41.857Z,99899.74
2022-09-12T23:31:11.818Z,99897.84
2022-09-12T23:33:40.997Z,99895.22
2022-09-12T23:36:10.784Z,99894.74
2022-09-12T23:38:37.596Z,99896.02
2022-09-12T23:41:04.621Z,99901.58
2022-09-12T23:43:31.485Z,99896.56
2022-09-12T23:45:58.421Z,99896.23
2022-09-12T23:48:25.230Z,99896.54
2022-09-12T23:50:52.162Z,99896.62
2022-09-12T23:53:19.385Z,99891.13
2022-09-12T23:55:46.460Z,99895.79
2022-09-12T23:58:13.139Z,99893.32
